Time;durP1;ratioP1;P1;durP2;ratioP2;P2;SDS_P1;SDS_P2;PMS_P1;PMS_P2;Temp;Humidity;BMP_temperature;BMP_pressure;BME280_temperature;BME280_humidity;BME280_pressure;Samples;Min_cycle;Max_cycle;Signal;HPM_P1;HPM_P2
2022/05/18 00:01:59;;;;;;;3.40;2.53;;;;;;;16.14;68.97;96092.72;5015002;28;20271;-77
2022/05/18 00:04:24;;;;;;;3.47;2.40;;;;;;;16.07;69.17;96091.75;5004441;28;20186;-78
2022/05/18 00:06:49;;;;;;;6.18;2.78;;;;;;;16.12;69.01;96099.09;5030714;28;20197;-78
2022/05/18 00:09:15;;;;;;;3.30;2.33;;;;;;;16.05;69.15;96096.34;5023043;28;20182;-77
2022/05/18 00:11:40;;;;;;;2.63;2.42;;;;;;;16.12;69.37;96099.94;5003346;28;20191;-78
2022/05/18 00:14:05;;;;;;;2.95;2.50;;;;;;;16.12;68.86;96099.09;5011702;28;20212;-77
2022/05/18 00:16:31;;;;;;;2.78;2.00;;;;;;;16.06;69.40;96092.72;5034823;28;20210;-78
2022/05/18 00:18:56;;;;;;;4.65;2.33;;;;;;;16.01;69.38;96092.44;4995251;28;20216;-78
2022/05/18 00:21:22;;;;;;;4.35;2.28;;;;;;;15.99;69.44;96098.81;5009484;28;20190;-77
2022/05/18 00:23:48;;;;;;;3.42;2.33;;;;;;;16.02;69.44;96093.25;5024157;28;20185;-78
2022/05/18 00:26:13;;;;;;;2.72;2.53;;;;;;;15.92;69.55;96098.69;5024626;28;20213;-77
2022/05/18 00:28:38;;;;;;;3.90;2.22;;;;;;;15.91;69.83;96102.28;5028718;28;20661;-78
2022/05/18 00:31:04;;;;;;;3.95;2.72;;;;;;;15.99;69.71;96104.03;4999018;28;20229;-77
2022/05/18 00:33:30;;;;;;;4.45;2.70;;;;;;;15.88;69.96;96099.16;5050818;28;20193;-76
2022/05/18 00:35:57;;;;;;;5.40;2.72;;;;;;;15.89;69.83;96098.19;5032818;28;20201;-77
2022/05/18 00:38:22;;;;;;;2.90;2.22;;;;;;;15.72;70.33;96100.81;5013091;28;20229;-77
2022/05/18 00:40:49;;;;;;;3.08;2.42;;;;;;;15.55;71.25;96109.66;5041859;28;20182;-76
2022/05/18 00:43:17;;;;;;;4.43;2.50;;;;;;;15.52;71.38;96102.94;5060884;28;20228;-76
2022/05/18 00:45:43;;;;;;;2.40;2.20;;;;;;;15.70;71.56;96101.97;5025933;28;20193;-78
2022/05/18 00:48:08;;;;;;;4.47;2.55;;;;;;;15.61;71.14;96101.16;5040169;28;20503;-77
2022/05/18 00:50:34;;;;;;;2.80;2.60;;;;;;;15.59;71.20;96096.06;5010695;28;20186;-78
2022/05/18 00:53:05;;;;;;;4.82;2.63;;;;;;;15.52;71.50;96097.69;5023509;28;20190;-76
2022/05/18 00:55:34;;;;;;;4.05;2.80;;;;;;;15.45;71.96;96098.53;5027704;28;20197;-78
2022/05/18 00:58:11;;;;;;;3.65;2.50;;;;;;;15.41;72.06;96100.66;5043089;28;20194;-77
2022/05/18 01:00:37;;;;;;;3.83;2.78;;;;;;;15.46;72.07;96101.00;5041547;28;20177;-77
2022/05/18 01:03:21;;;;;;;4.60;2.75;;;;;;;15.46;72.11;96101.00;5042690;28;20182;-78
2022/05/18 01:05:50;;;;;;;4.07;2.60;;;;;;;15.40;72.43;96103.44;5028188;28;20202;-77
2022/05/18 01:08:23;;;;;;;4.75;2.60;;;;;;;15.53;71.74;96093.28;5043247;28;20194;-77
2022/05/18 01:10:48;;;;;;;4.60;2.95;;;;;;;15.53;72.06;96093.28;5024804;28;20191;-78
2022/05/18 01:13:13;;;;;;;4.20;2.80;;;;;;;15.46;71.97;96103.63;5025894;28;20201;-77
2022/05/18 01:15:39;;;;;;;4.72;3.28;;;;;;;15.42;72.19;96107.53;5037428;28;20199;-77
2022/05/18 01:18:04;;;;;;;3.20;2.60;;;;;;;15.44;72.74;96104.75;5021229;28;20210;-76
2022/05/18 01:20:32;;;;;;;3.03;2.30;;;;;;;15.37;72.75;96107.22;5022427;28;20191;-76
2022/05/18 01:23:34;;;;;;;4.03;2.67;;;;;;;15.19;73.42;96111.75;5022983;28;20185;-76
2022/05/18 01:26:37;;;;;;;3.67;2.63;;;;;;;15.02;74.11;96109.16;4956012;28;20251;-76
2022/05/18 01:29:05;;;;;;;3.00;2.67;;;;;;;15.13;74.25;96101.97;4940101;28;20196;-77
2022/05/18 01:31:50;;;;;;;4.72;3.10;;;;;;;15.09;74.18;96116.31;4958329;28;20317;-77
2022/05/18 01:34:19;;;;;;;3.60;2.40;;;;;;;15.04;74.48;96114.22;4977230;28;20547;-77
2022/05/18 01:36:45;;;;;;;3.42;2.50;;;;;;;15.18;74.04;96115.34;4966995;28;20220;-77
2022/05/18 01:39:14;;;;;;;3.55;2.60;;;;;;;15.34;73.41;96112.75;4958747;29;20209;-77
2022/05/18 01:41:47;;;;;;;5.30;2.47;;;;;;;15.31;73.18;96110.47;4953564;28;20204;-77
2022/05/18 01:44:13;;;;;;;4.85;2.65;;;;;;;15.22;73.40;96109.66;4959480;28;20184;-77
2022/05/18 01:46:38;;;;;;;3.60;2.67;;;;;;;15.28;73.08;96116.00;4947501;29;20687;-77
2022/05/18 01:49:04;;;;;;;3.83;2.70;;;;;;;15.32;73.17;96108.69;4959832;29;20218;-77
2022/05/18 01:51:36;;;;;;;4.28;3.10;;;;;;;15.23;73.43;96110.47;4957089;28;20200;-77
2022/05/18 01:54:01;;;;;;;3.22;2.83;;;;;;;15.30;73.09;96108.84;4976075;28;20193;-77
2022/05/18 01:56:27;;;;;;;4.85;2.53;;;;;;;15.34;72.64;96102.28;4965582;28;20219;-77
2022/05/18 01:58:52;;;;;;;5.00;3.33;;;;;;;15.35;72.58;96111.78;4962477;28;20213;-76
2022/05/18 02:01:18;;;;;;;3.30;3.03;;;;;;;15.27;73.11;96099.50;5032275;28;20294;-77
2022/05/18 02:03:43;;;;;;;3.92;2.63;;;;;;;15.30;72.78;96108.84;5056251;28;20253;-76
2022/05/18 02:06:08;;;;;;;4.23;3.20;;;;;;;15.33;73.05;96105.88;5024408;28;20220;-76
2022/05/18 02:08:34;;;;;;;5.07;2.72;;;;;;;15.33;72.60;96103.28;5032712;28;20182;-76
2022/05/18 02:10:59;;;;;;;3.25;2.92;;;;;;;15.26;72.39;96105.72;5038613;28;20644;-77
2022/05/18 02:13:25;;;;;;;5.37;4.00;;;;;;;15.22;72.89;96108.84;5005343;28;20182;-77
2022/05/18 02:15:50;;;;;;;3.97;2.80;;;;;;;15.25;72.56;96113.72;5004015;28;20198;-77
2022/05/18 02:18:15;;;;;;;2.83;2.63;;;;;;;15.18;73.18;96110.94;5039762;28;20198;-77
2022/05/18 02:20:41;;;;;;;5.33;2.87;;;;;;;15.23;72.93;96111.28;5015264;28;20608;-76
2022/05/18 02:23:07;;;;;;;5.38;3.20;;;;;;;15.35;72.29;96117.00;5020237;28;20178;-78
2022/05/18 02:25:33;;;;;;;6.03;3.00;;;;;;;15.30;72.87;96121.94;5019935;28;20233;-77
2022/05/18 02:27:59;;;;;;;3.30;2.90;;;;;;;15.26;72.48;96124.03;5004656;28;20175;-77
2022/05/18 02:30:24;;;;;;;5.37;3.00;;;;;;;15.27;72.51;96125.66;5040563;28;20182;-77
2022/05/18 02:32:50;;;;;;;6.47;3.50;;;;;;;15.27;72.40;96130.09;5039931;28;20178;-77
2022/05/18 02:35:15;;;;;;;5.27;3.17;;;;;;;15.34;72.37;96131.06;5038325;28;20251;-76
2022/05/18 02:37:40;;;;;;;4.13;3.23;;;;;;;15.27;72.70;96130.91;5058190;28;20219;-77
2022/05/18 02:40:08;;;;;;;3.65;2.40;;;;;;;15.27;72.64;96125.66;5006045;28;20202;-77
2022/05/18 02:42:33;;;;;;;4.68;2.70;;;;;;;15.30;72.41;96125.34;5020488;28;20217;-77
2022/05/18 02:44:58;;;;;;;6.33;2.77;;;;;;;15.30;72.14;96130.59;5038003;28;20186;-77
2022/05/18 02:47:24;;;;;;;5.05;2.97;;;;;;;15.40;71.71;96130.44;5019629;28;20240;-78
2022/05/18 02:49:51;;;;;;;4.93;2.90;;;;;;;15.38;71.91;96121.94;5050882;28;20193;-77
2022/05/18 02:52:16;;;;;;;5.35;2.70;;;;;;;15.38;71.83;96121.94;5022839;28;20237;-77
2022/05/18 02:57:26;;;;;;;5.13;2.97;;;;;;;15.25;72.06;96121.59;5041622;28;20290;-77
2022/05/18 02:59:51;;;;;;;3.93;3.30;;;;;;;15.34;71.73;96123.22;5024294;28;20656;-77
2022/05/18 03:02:16;;;;;;;5.43;2.60;;;;;;;15.46;71.63;96121.94;5019640;28;20237;-77
2022/05/18 03:04:42;;;;;;;4.53;3.47;;;;;;;15.37;71.61;96120.31;5019577;28;20178;-77
2022/05/18 03:07:07;;;;;;;4.10;3.20;;;;;;;15.40;72.07;96122.59;5046360;28;20210;-77
2022/05/18 03:09:32;;;;;;;4.85;3.22;;;;;;;15.36;71.70;96118.63;5019881;28;20205;-77
2022/05/18 03:11:58;;;;;;;3.35;2.97;;;;;;;15.27;72.05;96127.47;5020888;28;20178;-75
2022/05/18 03:14:24;;;;;;;6.03;3.25;;;;;;;15.27;72.24;96130.09;5024042;28;20206;-75
2022/05/18 03:16:50;;;;;;;5.50;3.78;;;;;;;15.32;72.25;96137.47;5037483;28;20209;-76
2022/05/18 03:19:15;;;;;;;6.60;3.05;;;;;;;15.29;72.06;96134.19;5053081;28;20210;-75
2022/05/18 03:24:25;;;;;;;4.22;3.33;;;;;;;15.23;72.41;96139.25;5029806;28;20216;-77
2022/05/18 03:26:50;;;;;;;4.43;3.37;;;;;;;15.29;72.15;96143.84;5039952;28;20186;-77
2022/05/18 03:29:17;;;;;;;6.10;3.45;;;;;;;15.24;72.25;96140.88;5031130;28;20225;-76
2022/05/18 03:31:43;;;;;;;3.53;3.22;;;;;;;15.21;72.81;96149.06;5057660;28;20170;-76
2022/05/18 03:34:08;;;;;;;3.50;3.20;;;;;;;15.23;72.57;96145.31;5040316;28;20169;-77
2022/05/18 03:36:34;;;;;;;4.25;3.15;;;;;;;15.08;73.10;96146.09;5021355;28;20209;-76
2022/05/18 03:39:00;;;;;;;6.17;3.40;;;;;;;15.10;73.40;96151.97;5019850;28;20206;-76
2022/05/18 03:41:26;;;;;;;5.07;3.40;;;;;;;15.07;73.54;96155.72;5071352;28;20178;-76
2022/05/18 03:43:51;;;;;;;3.55;3.25;;;;;;;15.08;73.34;96156.53;5070240;28;20234;-76
2022/05/18 03:46:17;;;;;;;7.60;3.50;;;;;;;15.11;73.44;96158.88;5021456;28;20205;-76
2022/05/18 03:48:43;;;;;;;5.13;3.23;;;;;;;15.27;72.71;96151.00;5038675;28;20163;-76
2022/05/18 03:51:13;;;;;;;5.03;3.23;;;;;;;15.36;72.47;96157.88;5039208;28;20200;-77
2022/05/18 03:53:38;;;;;;;6.07;3.30;;;;;;;15.37;72.40;96154.31;5052860;28;20170;-77
2022/05/18 03:56:04;;;;;;;5.87;3.60;;;;;;;15.41;71.79;96157.41;5040853;28;20220;-76
2022/05/18 03:58:29;;;;;;;4.17;3.63;;;;;;;15.37;72.59;96161.31;5026851;28;20228;-77
2022/05/18 04:01:00;;;;;;;4.03;3.00;;;;;;;15.49;71.73;96166.09;5044434;28;20194;-77
2022/05/18 04:03:28;;;;;;;4.00;3.47;;;;;;;15.97;70.15;96169.69;5013052;28;20194;-75
2022/05/18 04:05:54;;;;;;;6.38;3.58;;;;;;;16.73;67.01;96164.94;5039166;28;20674;-77
2022/05/18 04:08:19;;;;;;;3.60;3.30;;;;;;;16.75;66.47;96163.78;5028083;28;20190;-77
2022/05/18 04:10:44;;;;;;;4.47;3.00;;;;;;;16.61;66.61;96161.88;5043731;28;20190;-77
2022/05/18 04:13:20;;;;;;;5.55;3.35;;;;;;;16.50;67.64;96164.84;5036369;28;20200;-77
2022/05/18 04:15:45;;;;;;;6.00;3.13;;;;;;;16.31;67.91;96161.63;5043463;28;20201;-78
2022/05/18 04:18:11;;;;;;;4.68;3.60;;;;;;;16.25;68.35;96164.91;5029893;28;20251;-78
2022/05/18 04:20:36;;;;;;;3.75;3.30;;;;;;;16.12;69.16;96168.03;5013165;28;20183;-77
2022/05/18 04:23:02;;;;;;;4.35;3.45;;;;;;;16.18;69.22;96171.00;5009744;28;20188;-78
2022/05/18 04:25:28;;;;;;;5.20;3.17;;;;;;;16.22;68.78;96175.72;5010537;28;20678;-77
2022/05/18 04:27:54;;;;;;;6.88;3.70;;;;;;;16.21;68.90;96171.47;5023782;28;20178;-77
2022/05/18 04:30:21;;;;;;;5.45;3.60;;;;;;;16.28;68.93;96176.88;5026835;28;20656;-77
2022/05/18 04:32:46;;;;;;;5.57;3.70;;;;;;;16.31;68.70;96176.53;5015771;28;20209;-76
2022/05/18 04:35:15;;;;;;;5.20;3.10;;;;;;;17.26;66.34;96186.00;5039017;28;20269;-78
2022/05/18 04:37:40;;;;;;;6.47;3.28;;;;;;;19.92;55.87;96187.88;5003790;28;20607;-79
2022/05/18 04:40:07;;;;;;;3.90;2.53;;;;;;;21.90;49.45;96191.44;5017672;28;20185;-75
2022/05/18 04:42:32;;;;;;;4.15;2.83;;;;;;;24.21;43.94;96192.50;5016942;28;20671;-77
2022/05/18 04:44:57;;;;;;;3.20;2.85;;;;;;;24.79;42.62;96194.00;5026932;28;20217;-77
2022/05/18 04:47:25;;;;;;;3.15;2.85;;;;;;;24.69;41.47;96197.16;5001779;28;20210;-77
2022/05/18 04:49:51;;;;;;;4.10;2.60;;;;;;;25.22;40.58;96204.56;5042345;28;20601;-78
2022/05/18 04:52:20;;;;;;;5.20;2.80;;;;;;;24.97;40.36;96209.13;5017139;28;20197;-78
2022/05/18 04:54:45;;;;;;;3.15;2.85;;;;;;;26.05;37.37;96217.16;5001748;28;20254;-77
2022/05/18 04:57:10;;;;;;;4.45;2.42;;;;;;;25.87;37.61;96209.25;5025201;28;20259;-79
2022/05/18 04:59:36;;;;;;;3.50;2.88;;;;;;;26.63;36.33;96220.94;5036022;28;20187;-77
2022/05/18 05:02:02;;;;;;;4.38;2.42;;;;;;;25.85;37.90;96216.63;5026394;28;20187;-78
2022/05/18 05:04:28;;;;;;;2.90;2.60;;;;;;;26.44;36.41;96225.56;5049267;28;20178;-79
2022/05/18 05:06:53;;;;;;;4.40;2.33;;;;;;;26.88;36.82;96218.03;5041190;28;20202;-80
2022/05/18 05:09:22;;;;;;;5.35;2.95;;;;;;;27.55;34.79;96221.00;5028582;28;20682;-79
2022/05/18 05:11:48;;;;;;;2.95;2.65;;;;;;;28.46;33.42;96238.69;5045061;28;20183;-77
2022/05/18 05:14:13;;;;;;;4.20;2.70;;;;;;;27.91;33.27;96231.31;5023424;28;20209;-77
2022/05/18 05:16:38;;;;;;;3.67;2.78;;;;;;;28.01;33.06;96233.38;5039864;28;20202;-77
2022/05/18 05:19:03;;;;;;;3.00;2.70;;;;;;;27.91;33.39;96233.16;5040209;28;20206;-76
2022/05/18 05:21:29;;;;;;;6.07;3.15;;;;;;;28.15;33.50;96225.84;5006574;28;20224;-78
2022/05/18 05:23:54;;;;;;;2.80;2.60;;;;;;;28.54;31.94;96236.66;5006018;28;20185;-78
2022/05/18 05:26:19;;;;;;;5.15;2.75;;;;;;;29.06;30.54;96234.47;5014438;28;20210;-78
2022/05/18 05:28:45;;;;;;;3.80;2.67;;;;;;;27.13;33.77;96229.28;5022734;28;20510;-78
2022/05/18 05:31:11;;;;;;;2.85;2.63;;;;;;;27.43;33.78;96234.41;5031860;28;20232;-77
2022/05/18 05:33:39;;;;;;;3.20;2.58;;;;;;;29.53;30.49;96234.84;5039009;28;20210;-77
2022/05/18 05:36:05;;;;;;;4.40;2.50;;;;;;;28.50;32.33;96230.97;5040059;28;20225;-77
2022/05/18 05:38:31;;;;;;;2.90;2.60;;;;;;;28.76;31.66;96235.66;5026079;28;20256;-76
2022/05/18 05:40:57;;;;;;;3.00;2.63;;;;;;;27.60;33.61;96235.25;5019478;28;20190;-76
2022/05/18 05:43:22;;;;;;;3.17;2.80;;;;;;;27.95;32.46;96239.66;5040249;28;20184;-77
2022/05/18 05:45:56;;;;;;;3.88;2.47;;;;;;;28.20;32.05;96234.75;5018342;28;20198;-78
2022/05/18 05:48:21;;;;;;;5.13;2.70;;;;;;;28.33;31.38;96240.84;5019061;28;20190;-76
2022/05/18 05:50:47;;;;;;;5.63;2.85;;;;;;;28.36;31.19;96238.53;5050340;28;20186;-77
2022/05/18 05:53:12;;;;;;;6.20;2.83;;;;;;;29.30;29.88;96243.06;5052906;28;20186;-78
2022/05/18 05:55:37;;;;;;;4.93;2.85;;;;;;;28.83;30.93;96235.47;5031730;28;20202;-76
2022/05/18 05:58:02;;;;;;;3.65;2.50;;;;;;;28.92;31.14;96243.91;5044311;28;20210;-77
2022/05/18 06:00:28;;;;;;;5.72;3.17;;;;;;;29.32;30.24;96241.75;5027707;28;20189;-77
2022/05/18 06:02:53;;;;;;;4.90;2.78;;;;;;;28.70;30.88;96241.16;5024236;28;20677;-76
2022/05/18 06:05:19;;;;;;;4.03;2.90;;;;;;;30.11;28.52;96240.50;5024574;28;20189;-78
2022/05/18 06:07:44;;;;;;;3.10;2.70;;;;;;;30.29;28.89;96247.38;5038376;28;20178;-78
2022/05/18 06:10:10;;;;;;;3.15;2.70;;;;;;;30.15;28.50;96247.81;5018055;28;20235;-78
2022/05/18 06:12:36;;;;;;;5.30;2.72;;;;;;;30.30;28.59;96254.34;5009356;28;20245;-78
2022/05/18 06:15:02;;;;;;;4.13;2.40;;;;;;;31.37;26.60;96252.41;5032541;28;20182;-76
2022/05/18 06:17:27;;;;;;;4.95;2.88;;;;;;;29.96;28.78;96254.56;5020203;28;20182;-76
2022/05/18 06:19:53;;;;;;;2.85;2.60;;;;;;;31.89;26.66;96262.25;5021989;28;20186;-77
2022/05/18 06:22:18;;;;;;;6.25;3.22;;;;;;;30.83;27.22;96264.16;5010243;28;20210;-78
2022/05/18 06:24:47;;;;;;;3.97;2.95;;;;;;;30.57;27.93;96260.47;5011477;28;20202;-78
2022/05/18 06:27:13;;;;;;;2.50;2.30;;;;;;;30.21;29.29;96262.03;5055270;28;20202;-78
2022/05/18 06:29:38;;;;;;;3.05;2.70;;;;;;;29.81;28.59;96267.78;5026989;28;20178;-78
2022/05/18 06:32:04;;;;;;;2.75;2.55;;;;;;;29.05;30.13;96259.59;5027126;28;20178;-77
2022/05/18 06:34:29;;;;;;;5.05;3.00;;;;;;;30.66;27.58;96263.53;5022935;28;20183;-78
2022/05/18 06:36:55;;;;;;;5.18;3.08;;;;;;;28.37;30.79;96260.72;5007584;28;20703;-78
2022/05/18 06:39:20;;;;;;;4.50;2.92;;;;;;;29.30;29.62;96262.59;5010362;28;20206;-78
2022/05/18 06:41:46;;;;;;;5.00;2.70;;;;;;;29.88;29.05;96257.69;5023438;28;20185;-78
2022/05/18 06:44:12;;;;;;;4.78;2.60;;;;;;;30.37;28.99;96258.44;5006900;28;20178;-78
2022/05/18 06:46:38;;;;;;;5.82;2.47;;;;;;;30.41;28.30;96264.09;5012362;28;20279;-78
2022/05/18 06:49:05;;;;;;;3.50;3.15;;;;;;;29.17;29.74;96260.31;5009153;28;20182;-79
2022/05/18 06:51:33;;;;;;;4.35;2.70;;;;;;;30.33;28.67;96259.19;5040001;28;20186;-78
2022/05/18 06:53:59;;;;;;;4.70;3.00;;;;;;;29.83;29.27;96253.06;5039489;28;20193;-78
2022/05/18 06:56:28;;;;;;;4.10;3.17;;;;;;;30.39;28.54;96264.34;5031556;28;20578;-77
2022/05/18 06:58:53;;;;;;;4.43;3.13;;;;;;;30.75;27.44;96256.63;5028039;28;20199;-78
2022/05/18 07:01:19;;;;;;;3.17;2.70;;;;;;;30.46;28.03;96266.81;5028046;28;20283;-77
2022/05/18 07:03:44;;;;;;;5.05;3.13;;;;;;;29.39;29.11;96252.28;5028760;28;20273;-79
2022/05/18 07:06:11;;;;;;;3.33;2.60;;;;;;;29.16;30.04;96260.56;5014017;28;20418;-78
2022/05/18 07:08:37;;;;;;;5.18;3.20;;;;;;;29.56;29.69;96266.44;5027094;28;20208;-79
2022/05/18 07:11:03;;;;;;;4.88;2.72;;;;;;;29.38;29.43;96261.38;5042983;28;20193;-78
2022/05/18 07:13:30;;;;;;;4.28;3.03;;;;;;;30.58;27.54;96270.13;5028797;28;20266;-79
2022/05/18 07:15:55;;;;;;;3.30;2.63;;;;;;;30.56;28.18;96261.50;5013313;28;20205;-78
2022/05/18 07:18:20;;;;;;;3.63;2.78;;;;;;;28.90;30.48;96262.06;5014478;28;20202;-79
2022/05/18 07:20:46;;;;;;;5.57;2.70;;;;;;;30.14;28.93;96264.94;5040359;28;20177;-78
2022/05/18 07:23:13;;;;;;;6.03;2.85;;;;;;;29.08;30.07;96264.47;5060917;28;20204;-78
2022/05/18 07:25:38;;;;;;;5.40;2.88;;;;;;;30.39;28.40;96266.19;5034389;28;20304;-79
2022/05/18 07:28:04;;;;;;;4.72;2.63;;;;;;;28.92;30.53;96270.66;5012583;28;20182;-78
2022/05/18 07:30:30;;;;;;;3.88;2.63;;;;;;;28.89;30.74;96268.41;5030632;28;20178;-78
2022/05/18 07:32:56;;;;;;;5.07;2.60;;;;;;;29.58;30.61;96266.97;5046903;28;20170;-79
2022/05/18 07:35:21;;;;;;;4.65;3.10;;;;;;;29.25;30.96;96264.44;5018549;28;20206;-79
2022/05/18 07:37:47;;;;;;;4.13;2.90;;;;;;;28.97;31.11;96271.50;5049901;28;20267;-79
2022/05/18 07:40:12;;;;;;;3.28;2.70;;;;;;;29.13;31.19;96267.19;5046996;28;20177;-77
2022/05/18 07:42:38;;;;;;;3.85;2.97;;;;;;;27.30;34.19;96267.50;5035387;28;20216;-77
2022/05/18 07:45:05;;;;;;;4.38;3.05;;;;;;;28.39;32.69;96267.41;5027129;28;20178;-78
2022/05/18 07:47:31;;;;;;;3.50;3.17;;;;;;;28.57;32.59;96270.91;5039406;28;20190;-78
2022/05/18 07:49:57;;;;;;;3.75;2.90;;;;;;;28.46;32.68;96268.06;5030101;28;20494;-79
2022/05/18 07:52:23;;;;;;;7.82;3.03;;;;;;;28.39;32.47;96267.41;5019784;28;20182;-80
2022/05/18 07:54:48;;;;;;;3.85;3.10;;;;;;;28.42;32.94;96268.78;5036683;28;20636;-79
2022/05/18 07:57:15;;;;;;;3.30;2.85;;;;;;;28.46;32.57;96273.41;5007702;28;20214;-80
2022/05/18 07:59:40;;;;;;;3.05;2.70;;;;;;;28.04;33.67;96269.44;5026066;28;20217;-80
2022/05/18 08:02:06;;;;;;;6.90;3.10;;;;;;;27.78;34.54;96277.00;5008204;28;20585;-79
2022/05/18 08:04:31;;;;;;;8.45;3.08;;;;;;;27.78;34.45;96277.00;5019431;28;20261;-79
2022/05/18 08:06:56;;;;;;;3.47;3.15;;;;;;;27.31;35.34;96269.09;5026437;28;20651;-77
2022/05/18 08:09:22;;;;;;;3.45;3.08;;;;;;;26.85;36.29;96269.91;5036777;28;20177;-79
2022/05/18 08:17:19;;;;;;;4.88;3.30;;;;;;;26.75;36.83;96272.38;5027972;28;20224;-78
2022/05/18 08:19:44;;;;;;;4.05;2.92;;;;;;;26.54;38.02;96271.91;5023480;28;20265;-79
2022/05/18 08:22:10;;;;;;;5.15;3.20;;;;;;;26.64;37.22;96268.66;5008357;28;20181;-78
2022/05/18 08:24:36;;;;;;;6.07;3.08;;;;;;;25.63;38.56;96262.34;5020718;28;20567;-78
2022/05/18 08:27:07;;;;;;;5.68;3.17;;;;;;;25.43;40.25;96267.09;5005482;28;20676;-78
2022/05/18 08:29:32;;;;;;;4.20;3.80;;;;;;;25.45;40.37;96264.22;5007189;28;20209;-79
2022/05/18 08:31:58;;;;;;;4.35;3.40;;;;;;;25.24;41.42;96270.78;5022871;28;20179;-78
2022/05/18 08:34:23;;;;;;;3.78;2.90;;;;;;;25.79;39.06;96274.22;5022728;28;20770;-78
2022/05/18 08:36:49;;;;;;;4.07;3.28;;;;;;;25.84;38.17;96276.22;5029316;28;20209;-79
2022/05/18 08:39:15;;;;;;;3.65;3.35;;;;;;;26.01;39.57;96282.53;5051379;28;20206;-78
2022/05/18 08:41:45;;;;;;;5.40;2.88;;;;;;;25.71;38.96;96279.88;5011319;28;20178;-78
2022/05/18 08:44:34;;;;;;;2.90;2.47;;;;;;;25.67;38.04;96282.13;5039150;28;20228;-79
2022/05/18 08:47:18;;;;;;;3.47;2.97;;;;;;;25.93;37.48;96282.84;5010514;28;20203;-77
2022/05/18 08:49:50;;;;;;;3.75;2.80;;;;;;;26.21;36.64;96284.88;5065759;28;20197;-77
2022/05/18 08:52:29;;;;;;;4.53;2.67;;;;;;;26.38;35.04;96287.72;5061635;28;20182;-78
2022/05/18 08:55:28;;;;;;;4.53;2.75;;;;;;;26.30;36.20;96278.19;5047141;28;20186;-77
2022/05/18 08:57:57;;;;;;;3.97;2.83;;;;;;;26.49;36.61;96287.75;5045807;28;20321;-78
2022/05/18 09:00:30;;;;;;;2.92;2.50;;;;;;;26.36;36.82;96282.59;5027539;28;20182;-80
2022/05/18 09:03:03;;;;;;;5.90;2.80;;;;;;;26.59;36.69;96286.38;5019204;28;20682;-78
2022/05/18 09:05:35;;;;;;;2.80;2.60;;;;;;;26.64;35.52;96284.66;5040963;28;20197;-77
2022/05/18 09:08:20;;;;;;;5.35;2.85;;;;;;;26.38;36.91;96288.53;5020467;28;20263;-78
2022/05/18 09:10:54;;;;;;;3.92;2.70;;;;;;;26.39;36.15;96281.38;5047248;28;20186;-78
2022/05/18 09:13:20;;;;;;;5.80;2.95;;;;;;;26.61;35.74;96282.44;5041115;28;20213;-78
2022/05/18 09:16:19;;;;;;;6.03;2.55;;;;;;;26.56;37.34;96284.97;5041044;28;20219;-78
2022/05/18 09:18:59;;;;;;;3.38;2.70;;;;;;;26.59;38.00;96283.69;5039885;28;20256;-77
2022/05/18 09:21:43;;;;;;;3.20;2.47;;;;;;;26.76;34.57;96287.31;5022795;28;20212;-77
2022/05/18 09:24:44;;;;;;;3.15;2.22;;;;;;;26.34;36.48;96276.72;5027521;28;20186;-76
2022/05/18 09:27:22;;;;;;;3.53;2.38;;;;;;;26.78;35.85;96278.06;5023993;28;20198;-77
2022/05/18 09:29:58;;;;;;;5.45;2.60;;;;;;;27.04;35.37;96270.66;5037395;28;20178;-77
2022/05/18 09:32:46;;;;;;;3.70;3.17;;;;;;;26.37;36.16;96272.78;5007732;28;20178;-77
2022/05/18 09:35:59;;;;;;;4.22;2.55;;;;;;;26.79;36.53;96271.69;5033468;28;20182;-76
2022/05/18 09:38:57;;;;;;;3.90;2.65;;;;;;;27.13;34.49;96271.13;4998017;28;20221;-78
2022/05/18 09:41:30;;;;;;;3.42;2.25;;;;;;;26.91;34.41;96273.53;5010424;28;20195;-77
2022/05/18 09:44:09;;;;;;;4.38;2.67;;;;;;;26.42;37.34;96264.94;5023065;28;20182;-78
2022/05/18 09:46:35;;;;;;;3.33;2.17;;;;;;;26.74;34.90;96268.88;5028351;28;20225;-76
2022/05/18 09:49:10;;;;;;;4.80;2.22;;;;;;;26.89;34.17;96268.44;5047109;28;20174;-76
2022/05/18 09:51:36;;;;;;;4.45;2.42;;;;;;;26.89;35.63;96276.44;5022928;28;20272;-76
2022/05/18 09:54:02;;;;;;;6.13;2.70;;;;;;;26.90;37.53;96269.25;5022283;28;20261;-78
2022/05/18 09:56:30;;;;;;;2.60;2.28;;;;;;;26.70;34.15;96262.41;5033299;28;20218;-78
2022/05/18 09:59:01;;;;;;;3.63;2.05;;;;;;;26.47;32.54;96257.88;5026216;28;20202;-77
2022/05/18 10:10:26;;;;;;;2.42;2.22;;;;;;;26.61;33.52;96266.47;5043886;28;20196;-77
2022/05/18 10:12:54;;;;;;;4.70;2.00;;;;;;;26.77;33.42;96263.13;5028262;28;20170;-77
2022/05/18 10:15:28;;;;;;;4.30;2.25;;;;;;;26.93;34.01;96260.78;5040765;28;20185;-77
2022/05/18 10:17:55;;;;;;;3.08;2.25;;;;;;;26.74;32.48;96258.22;5020498;28;20214;-77
2022/05/18 10:20:25;;;;;;;5.97;2.13;;;;;;;26.80;33.84;96259.16;5014739;28;20220;-77
2022/05/18 10:22:51;;;;;;;2.88;1.80;;;;;;;27.05;31.57;96253.63;5042322;28;20178;-75
2022/05/18 10:25:29;;;;;;;5.07;1.92;;;;;;;26.74;31.08;96260.09;5003437;28;20186;-76
2022/05/18 10:27:55;;;;;;;1.95;1.85;;;;;;;26.43;32.05;96263.91;5034680;28;20205;-75
2022/05/18 10:30:32;;;;;;;2.25;1.60;;;;;;;26.62;31.43;96260.09;5020895;28;20177;-76
2022/05/18 10:33:02;;;;;;;5.57;1.90;;;;;;;26.71;32.24;96272.03;5007627;28;20667;-76
2022/05/18 10:35:34;;;;;;;3.13;2.10;;;;;;;26.75;31.64;96259.84;5053962;28;20746;-79
2022/05/18 10:38:02;;;;;;;2.25;2.05;;;;;;;26.82;34.87;96267.72;5014328;28;21039;-77
2022/05/18 10:40:27;;;;;;;3.03;2.20;;;;;;;27.20;33.04;96253.91;5017849;28;20186;-77
2022/05/18 10:42:56;;;;;;;3.30;2.20;;;;;;;27.19;30.08;96251.50;5002554;28;20182;-77
2022/05/18 10:45:31;;;;;;;2.83;2.17;;;;;;;27.21;31.20;96255.56;5019418;28;20204;-78
2022/05/18 10:48:05;;;;;;;2.78;1.88;;;;;;;27.44;30.61;96253.88;5040783;28;20271;-77
2022/05/18 10:50:40;;;;;;;2.15;1.70;;;;;;;27.07;30.84;96254.19;5023316;28;20824;-77
2022/05/18 10:53:15;;;;;;;2.65;1.83;;;;;;;27.20;30.89;96253.91;5017218;28;20181;-77
2022/05/18 10:56:09;;;;;;;2.78;1.70;;;;;;;27.67;29.84;96248.50;5049606;28;20247;-77
2022/05/18 10:58:46;;;;;;;1.70;1.60;;;;;;;27.54;29.51;96257.53;4998686;28;20206;-77
2022/05/18 11:01:14;;;;;;;2.22;1.83;;;;;;;27.75;29.17;96244.66;5015845;28;20275;-77
2022/05/18 11:04:06;;;;;;;1.90;1.70;;;;;;;27.26;29.89;96242.31;5020073;28;20190;-76
2022/05/18 11:06:34;;;;;;;2.40;1.90;;;;;;;27.34;28.79;96246.47;5014870;28;20198;-77
2022/05/18 11:09:04;;;;;;;2.75;1.73;;;;;;;27.49;29.75;96240.66;5038039;28;20186;-76
2022/05/18 11:12:06;;;;;;;2.78;1.80;;;;;;;27.60;29.10;96242.47;5023861;28;20194;-76
2022/05/18 11:14:38;;;;;;;3.45;2.03;;;;;;;27.44;28.97;96233.34;5036600;28;20185;-77
2022/05/18 11:17:30;;;;;;;4.85;1.90;;;;;;;27.61;31.21;96220.06;5056107;28;20212;-76
2022/05/18 11:20:24;;;;;;;3.20;2.28;;;;;;;27.07;30.71;96222.19;5022455;28;20182;-78
2022/05/18 11:23:08;;;;;;;2.97;1.80;;;;;;;27.65;29.41;96223.88;5042086;28;20406;-77
2022/05/18 11:26:09;;;;;;;3.90;2.05;;;;;;;27.34;30.85;96217.16;4997234;28;20205;-77
2022/05/18 11:28:53;;;;;;;3.10;1.55;;;;;;;27.79;29.94;96224.44;5027200;28;20236;-78
2022/05/18 11:31:29;;;;;;;3.65;1.80;;;;;;;27.91;29.44;96227.84;5046250;28;20188;-78
2022/05/18 11:34:21;;;;;;;3.70;1.95;;;;;;;27.97;28.31;96215.41;5027484;28;20569;-78
2022/05/18 11:37:06;;;;;;;2.55;1.73;;;;;;;27.73;30.08;96218.19;5038383;28;20298;-77
2022/05/18 11:40:03;;;;;;;2.60;2.40;;;;;;;27.66;29.53;96214.88;4990253;28;20198;-77
2022/05/18 11:42:53;;;;;;;2.05;1.80;;;;;;;27.35;31.94;96214.25;5049675;28;20331;-77
2022/05/18 11:45:31;;;;;;;2.90;2.00;;;;;;;27.47;31.49;96205.38;5033652;28;20217;-78
2022/05/18 11:48:05;;;;;;;4.95;2.20;;;;;;;27.58;30.74;96204.56;5038357;28;20547;-77
2022/05/18 11:50:47;;;;;;;3.03;2.17;;;;;;;27.25;31.73;96214.03;5015371;28;20177;-77
2022/05/18 11:53:15;;;;;;;3.13;1.80;;;;;;;27.27;31.63;96189.81;5011224;28;20217;-76
2022/05/18 11:55:59;;;;;;;3.13;2.25;;;;;;;27.31;31.24;96193.63;5037677;28;20209;-77
2022/05/18 11:58:47;;;;;;;4.32;2.20;;;;;;;27.55;30.62;96187.13;4993387;28;20214;-77
2022/05/18 12:01:41;;;;;;;4.10;2.10;;;;;;;27.66;29.90;96193.53;5033805;28;20616;-77
2022/05/18 12:04:45;;;;;;;1.95;1.60;;;;;;;27.64;32.48;96179.56;5026682;28;20651;-77
2022/05/18 12:07:33;;;;;;;2.80;2.22;;;;;;;27.96;29.86;96181.75;5047314;28;20231;-77